createdAt,value
2023-02-03T00:12:21.749Z,7.72
2023-02-03T00:27:11.545Z,7.75
2023-02-03T00:42:02.696Z,7.79
2023-02-03T00:57:01.101Z,7.85
2023-02-03T01:11:51.265Z,7.86
2023-02-03T01:26:42.157Z,7.85
2023-02-03T01:41:33.152Z,7.83
2023-02-03T01:56:23.797Z,7.79
2023-02-03T02:11:16.039Z,7.74
2023-02-03T02:26:33.057Z,7.76
2023-02-03T02:41:30.320Z,7.79
2023-02-03T02:56:21.912Z,7.77
2023-02-03T03:26:15.438Z,7.72
2023-02-03T03:41:05.748Z,7.67
2023-02-03T03:55:56.410Z,7.63
2023-02-03T04:10:47.647Z,7.58
2023-02-03T04:25:37.380Z,7.53
2023-02-03T04:40:28.481Z,7.45
2023-02-03T04:55:19.589Z,7.48
2023-02-03T05:10:10.485Z,7.52
2023-02-03T05:25:02.017Z,7.61
2023-02-03T05:39:52.880Z,7.68
2023-02-03T05:54:43.310Z,7.74
2023-02-03T06:09:33.282Z,7.76
2023-02-03T06:24:23.915Z,7.72
2023-02-03T06:39:13.943Z,7.53
2023-02-03T06:54:04.043Z,7.48
2023-02-03T07:08:54.123Z,7.41
2023-02-03T07:23:43.868Z,7.30
2023-02-03T07:38:34.614Z,7.26
2023-02-03T07:53:24.331Z,7.30
2023-02-03T08:08:15.527Z,7.39
2023-02-03T08:23:05.386Z,7.44
2023-02-03T08:37:55.845Z,7.51
2023-02-03T08:52:46.611Z,7.53
2023-02-03T09:07:37.109Z,7.59
2023-02-03T09:22:27.641Z,7.67
2023-02-03T09:37:18.629Z,7.76
2023-02-03T09:52:09.096Z,8.05
2023-02-03T10:07:02.864Z,7.99
2023-02-03T10:21:56.878Z,8.10
2023-02-03T10:36:56.874Z,8.24
2023-02-03T10:51:52.521Z,8.52
2023-02-03T11:06:43.414Z,8.71
2023-02-03T11:21:38.469Z,8.74
2023-02-03T11:36:33.564Z,8.94
2023-02-03T11:51:45.523Z,9.30
2023-02-03T12:06:56.874Z,9.46
2023-02-03T12:22:13.598Z,9.58
2023-02-03T12:37:10.480Z,9.49
2023-02-03T12:52:03.303Z,9.45
2023-02-03T13:07:15.191Z,9.43
2023-02-03T13:22:12.802Z,9.51
2023-02-03T13:37:08.152Z,9.45
2023-02-03T14:07:04.787Z,9.33
2023-02-03T14:21:54.886Z,9.30
2023-02-03T14:36:49.769Z,9.31
2023-02-03T14:51:52.102Z,9.31
2023-02-03T15:06:46.594Z,9.28
2023-02-03T15:21:37.703Z,9.25
2023-02-03T15:36:35.772Z,9.22
2023-02-03T15:51:36.478Z,9.18
2023-02-03T16:06:31.267Z,9.09
2023-02-03T16:21:36.577Z,9.01
2023-02-03T16:36:51.857Z,9.00
2023-02-03T16:51:48.813Z,8.95
2023-02-03T17:06:39.003Z,8.92
2023-02-03T17:21:29.843Z,8.91
2023-02-03T17:36:20.803Z,8.95
2023-02-03T18:06:08.215Z,9.01
2023-02-03T18:20:58.785Z,9.01
2023-02-03T18:35:49.622Z,9.00
2023-02-03T18:50:40.619Z,9.02
2023-02-03T19:05:31.261Z,9.03
2023-02-03T19:20:22.504Z,9.05
2023-02-03T19:35:13.156Z,9.08
2023-02-03T19:50:04.171Z,9.11
2023-02-03T20:19:58.913Z,8.92
2023-02-03T20:34:49.023Z,8.86
2023-02-03T21:20:01.951Z,8.93
2023-02-03T21:34:52.662Z,8.96
2023-02-03T21:49:43.861Z,9.00
2023-02-03T22:04:34.682Z,9.02
2023-02-03T22:19:25.913Z,9.03
2023-02-03T22:34:16.218Z,8.99
2023-02-03T22:49:07.149Z,9.02
2023-02-03T23:03:58.676Z,9.06
2023-02-03T23:18:49.556Z,9.09
2023-02-03T23:33:40.050Z,9.10
2023-02-03T23:48:31.200Z,9.12
